sensor_id;sensor_type;location;lat;lon;timestamp;P1;durP1;ratioP1;P2;durP2;ratioP2
19679;SDS011;9989;48.962;9.182;2023-11-22T00:01:21;7.77;;;3.40;;
19679;SDS011;9989;48.962;9.182;2023-11-22T00:03:47;8.60;;;3.50;;
19679;SDS011;9989;48.962;9.182;2023-11-22T00:06:13;8.13;;;3.67;;
19679;SDS011;9989;48.962;9.182;2023-11-22T00:08:39;8.53;;;3.60;;
19679;SDS011;9989;48.962;9.182;2023-11-22T00:11:04;8.63;;;4.17;;
19679;SDS011;9989;48.962;9.182;2023-11-22T00:13:30;8.87;;;3.97;;
19679;SDS011;9989;48.962;9.182;2023-11-22T00:15:57;7.83;;;3.50;;
19679;SDS011;9989;48.962;9.182;2023-11-22T00:18:23;9.63;;;3.93;;
19679;SDS011;9989;48.962;9.182;2023-11-22T00:20:49;8.13;;;3.70;;
19679;SDS011;9989;48.962;9.182;2023-11-22T00:23:15;7.73;;;3.57;;
19679;SDS011;9989;48.962;9.182;2023-11-22T00:25:40;8.00;;;3.73;;
19679;SDS011;9989;48.962;9.182;2023-11-22T00:28:06;7.63;;;3.73;;
19679;SDS011;9989;48.962;9.182;2023-11-22T00:30:32;9.70;;;4.00;;
19679;SDS011;9989;48.962;9.182;2023-11-22T00:32:57;8.10;;;3.80;;
19679;SDS011;9989;48.962;9.182;2023-11-22T00:35:23;9.73;;;4.10;;
19679;SDS011;9989;48.962;9.182;2023-11-22T00:37:49;9.80;;;4.37;;
19679;SDS011;9989;48.962;9.182;2023-11-22T00:40:14;7.97;;;3.90;;
19679;SDS011;9989;48.962;9.182;2023-11-22T00:42:40;8.63;;;3.80;;
19679;SDS011;9989;48.962;9.182;2023-11-22T00:45:09;9.17;;;4.67;;
19679;SDS011;9989;48.962;9.182;2023-11-22T00:47:35;9.13;;;4.17;;
19679;SDS011;9989;48.962;9.182;2023-11-22T00:50:01;8.10;;;3.70;;
19679;SDS011;9989;48.962;9.182;2023-11-22T00:52:29;7.97;;;3.63;;
19679;SDS011;9989;48.962;9.182;2023-11-22T00:54:57;8.63;;;4.10;;
19679;SDS011;9989;48.962;9.182;2023-11-22T00:57:23;7.67;;;3.47;;
19679;SDS011;9989;48.962;9.182;2023-11-22T00:59:49;7.30;;;3.30;;
19679;SDS011;9989;48.962;9.182;2023-11-22T01:02:15;7.50;;;3.37;;
19679;SDS011;9989;48.962;9.182;2023-11-22T01:04:41;9.00;;;3.73;;
19679;SDS011;9989;48.962;9.182;2023-11-22T01:07:06;6.83;;;3.00;;
19679;SDS011;9989;48.962;9.182;2023-11-22T01:09:32;7.97;;;3.30;;
19679;SDS011;9989;48.962;9.182;2023-11-22T01:11:59;6.37;;;2.80;;
19679;SDS011;9989;48.962;9.182;2023-11-22T01:14:25;8.83;;;3.77;;
19679;SDS011;9989;48.962;9.182;2023-11-22T01:16:54;7.20;;;3.37;;
19679;SDS011;9989;48.962;9.182;2023-11-22T01:19:20;8.20;;;3.87;;
19679;SDS011;9989;48.962;9.182;2023-11-22T01:21:46;10.33;;;3.57;;
19679;SDS011;9989;48.962;9.182;2023-11-22T01:24:12;7.47;;;3.30;;
19679;SDS011;9989;48.962;9.182;2023-11-22T01:26:37;7.13;;;3.10;;
19679;SDS011;9989;48.962;9.182;2023-11-22T01:29:03;6.90;;;3.10;;
19679;SDS011;9989;48.962;9.182;2023-11-22T01:31:30;8.53;;;3.30;;
19679;SDS011;9989;48.962;9.182;2023-11-22T01:33:57;7.13;;;3.43;;
19679;SDS011;9989;48.962;9.182;2023-11-22T01:36:23;8.83;;;3.80;;
19679;SDS011;9989;48.962;9.182;2023-11-22T01:38:50;8.70;;;3.90;;
19679;SDS011;9989;48.962;9.182;2023-11-22T01:41:17;8.50;;;4.33;;
19679;SDS011;9989;48.962;9.182;2023-11-22T01:43:43;7.30;;;3.37;;
19679;SDS011;9989;48.962;9.182;2023-11-22T01:46:08;7.50;;;3.50;;
19679;SDS011;9989;48.962;9.182;2023-11-22T01:48:43;7.47;;;3.70;;
19679;SDS011;9989;48.962;9.182;2023-11-22T01:51:09;8.07;;;3.80;;
19679;SDS011;9989;48.962;9.182;2023-11-22T01:53:34;7.50;;;3.60;;
19679;SDS011;9989;48.962;9.182;2023-11-22T01:56:01;6.80;;;3.20;;
19679;SDS011;9989;48.962;9.182;2023-11-22T01:58:27;7.77;;;3.50;;
19679;SDS011;9989;48.962;9.182;2023-11-22T02:00:53;7.00;;;3.50;;
19679;SDS011;9989;48.962;9.182;2023-11-22T02:03:19;7.27;;;3.77;;
19679;SDS011;9989;48.962;9.182;2023-11-22T02:05:45;8.10;;;3.70;;
19679;SDS011;9989;48.962;9.182;2023-11-22T02:08:12;8.60;;;3.37;;
19679;SDS011;9989;48.962;9.182;2023-11-22T02:10:38;7.60;;;3.30;;
19679;SDS011;9989;48.962;9.182;2023-11-22T02:13:05;8.27;;;3.73;;
19679;SDS011;9989;48.962;9.182;2023-11-22T02:15:32;8.57;;;3.83;;
19679;SDS011;9989;48.962;9.182;2023-11-22T02:18:02;9.60;;;4.03;;
19679;SDS011;9989;48.962;9.182;2023-11-22T02:20:28;8.23;;;3.80;;
19679;SDS011;9989;48.962;9.182;2023-11-22T02:23:01;7.80;;;3.90;;
19679;SDS011;9989;48.962;9.182;2023-11-22T02:25:32;8.83;;;4.37;;
19679;SDS011;9989;48.962;9.182;2023-11-22T02:27:58;8.20;;;3.93;;
19679;SDS011;9989;48.962;9.182;2023-11-22T02:30:24;10.83;;;4.07;;
19679;SDS011;9989;48.962;9.182;2023-11-22T02:32:50;8.60;;;3.97;;
19679;SDS011;9989;48.962;9.182;2023-11-22T02:35:16;9.10;;;4.07;;
19679;SDS011;9989;48.962;9.182;2023-11-22T02:37:42;8.07;;;3.97;;
19679;SDS011;9989;48.962;9.182;2023-11-22T02:40:20;8.10;;;4.37;;
19679;SDS011;9989;48.962;9.182;2023-11-22T02:42:49;7.90;;;3.83;;
19679;SDS011;9989;48.962;9.182;2023-11-22T02:45:16;8.73;;;4.40;;
19679;SDS011;9989;48.962;9.182;2023-11-22T02:47:49;9.00;;;4.80;;
19679;SDS011;9989;48.962;9.182;2023-11-22T02:50:15;8.83;;;4.23;;
19679;SDS011;9989;48.962;9.182;2023-11-22T02:52:41;9.67;;;4.17;;
19679;SDS011;9989;48.962;9.182;2023-11-22T02:55:07;9.23;;;4.20;;
19679;SDS011;9989;48.962;9.182;2023-11-22T02:57:36;9.47;;;5.27;;
19679;SDS011;9989;48.962;9.182;2023-11-22T03:00:05;8.97;;;4.20;;
19679;SDS011;9989;48.962;9.182;2023-11-22T03:02:33;10.83;;;4.80;;
19679;SDS011;9989;48.962;9.182;2023-11-22T03:04:59;8.33;;;3.93;;
19679;SDS011;9989;48.962;9.182;2023-11-22T03:07:25;9.10;;;4.30;;
19679;SDS011;9989;48.962;9.182;2023-11-22T03:09:51;8.47;;;4.10;;
19679;SDS011;9989;48.962;9.182;2023-11-22T03:12:18;8.10;;;4.10;;
19679;SDS011;9989;48.962;9.182;2023-11-22T03:14:45;8.37;;;4.40;;
19679;SDS011;9989;48.962;9.182;2023-11-22T03:17:11;9.00;;;3.90;;
19679;SDS011;9989;48.962;9.182;2023-11-22T03:19:38;10.10;;;4.40;;
19679;SDS011;9989;48.962;9.182;2023-11-22T03:22:05;9.00;;;4.33;;
19679;SDS011;9989;48.962;9.182;2023-11-22T03:24:31;8.43;;;3.87;;
19679;SDS011;9989;48.962;9.182;2023-11-22T03:27:00;9.10;;;4.53;;
19679;SDS011;9989;48.962;9.182;2023-11-22T03:29:26;8.90;;;3.93;;
19679;SDS011;9989;48.962;9.182;2023-11-22T03:31:52;8.07;;;4.03;;
19679;SDS011;9989;48.962;9.182;2023-11-22T03:34:21;9.10;;;4.23;;
19679;SDS011;9989;48.962;9.182;2023-11-22T03:36:47;8.67;;;4.23;;
19679;SDS011;9989;48.962;9.182;2023-11-22T03:39:14;8.10;;;4.40;;
19679;SDS011;9989;48.962;9.182;2023-11-22T03:41:40;8.80;;;3.57;;
19679;SDS011;9989;48.962;9.182;2023-11-22T03:44:07;8.57;;;4.30;;
19679;SDS011;9989;48.962;9.182;2023-11-22T03:46:36;8.57;;;3.93;;
19679;SDS011;9989;48.962;9.182;2023-11-22T03:49:03;7.70;;;3.27;;
19679;SDS011;9989;48.962;9.182;2023-11-22T03:51:29;9.10;;;4.23;;
19679;SDS011;9989;48.962;9.182;2023-11-22T03:53:55;8.50;;;4.03;;
19679;SDS011;9989;48.962;9.182;2023-11-22T03:56:21;8.40;;;3.77;;
19679;SDS011;9989;48.962;9.182;2023-11-22T03:58:46;10.53;;;3.80;;
19679;SDS011;9989;48.962;9.182;2023-11-22T04:01:14;8.03;;;3.70;;
19679;SDS011;9989;48.962;9.182;2023-11-22T04:03:41;8.33;;;3.60;;
19679;SDS011;9989;48.962;9.182;2023-11-22T04:06:07;9.00;;;3.80;;
19679;SDS011;9989;48.962;9.182;2023-11-22T04:08:33;9.10;;;3.50;;
19679;SDS011;9989;48.962;9.182;2023-11-22T04:10:59;8.03;;;3.83;;
19679;SDS011;9989;48.962;9.182;2023-11-22T04:13:24;8.60;;;3.97;;
19679;SDS011;9989;48.962;9.182;2023-11-22T04:15:50;7.80;;;3.73;;
19679;SDS011;9989;48.962;9.182;2023-11-22T04:18:16;7.90;;;3.93;;
19679;SDS011;9989;48.962;9.182;2023-11-22T04:20:41;7.97;;;3.80;;
19679;SDS011;9989;48.962;9.182;2023-11-22T04:23:07;7.67;;;3.47;;
19679;SDS011;9989;48.962;9.182;2023-11-22T04:25:35;7.30;;;3.00;;
19679;SDS011;9989;48.962;9.182;2023-11-22T04:28:02;9.73;;;3.90;;
19679;SDS011;9989;48.962;9.182;2023-11-22T04:30:28;9.10;;;4.10;;
19679;SDS011;9989;48.962;9.182;2023-11-22T04:32:53;7.00;;;3.43;;
19679;SDS011;9989;48.962;9.182;2023-11-22T04:35:19;8.80;;;4.20;;
19679;SDS011;9989;48.962;9.182;2023-11-22T04:37:45;8.40;;;4.23;;
19679;SDS011;9989;48.962;9.182;2023-11-22T04:40:12;8.20;;;3.83;;
19679;SDS011;9989;48.962;9.182;2023-11-22T04:42:39;7.70;;;3.53;;
19679;SDS011;9989;48.962;9.182;2023-11-22T04:45:05;8.43;;;3.80;;
19679;SDS011;9989;48.962;9.182;2023-11-22T04:47:31;9.67;;;4.10;;
19679;SDS011;9989;48.962;9.182;2023-11-22T04:49:57;9.13;;;3.77;;
19679;SDS011;9989;48.962;9.182;2023-11-22T04:52:23;8.17;;;3.80;;
19679;SDS011;9989;48.962;9.182;2023-11-22T04:54:48;8.53;;;4.00;;
19679;SDS011;9989;48.962;9.182;2023-11-22T04:57:14;7.33;;;3.60;;
19679;SDS011;9989;48.962;9.182;2023-11-22T04:59:40;9.53;;;3.40;;
19679;SDS011;9989;48.962;9.182;2023-11-22T05:02:06;7.70;;;3.43;;
19679;SDS011;9989;48.962;9.182;2023-11-22T05:04:32;8.03;;;3.60;;
19679;SDS011;9989;48.962;9.182;2023-11-22T05:06:58;8.07;;;3.30;;
19679;SDS011;9989;48.962;9.182;2023-11-22T05:09:23;7.30;;;3.87;;
19679;SDS011;9989;48.962;9.182;2023-11-22T05:11:49;7.67;;;3.33;;
19679;SDS011;9989;48.962;9.182;2023-11-22T05:14:17;9.27;;;3.80;;
19679;SDS011;9989;48.962;9.182;2023-11-22T05:16:42;6.53;;;3.03;;
19679;SDS011;9989;48.962;9.182;2023-11-22T05:19:08;7.53;;;3.13;;
19679;SDS011;9989;48.962;9.182;2023-11-22T05:21:34;9.20;;;3.83;;
19679;SDS011;9989;48.962;9.182;2023-11-22T05:23:59;8.43;;;3.43;;
19679;SDS011;9989;48.962;9.182;2023-11-22T05:26:25;7.47;;;3.50;;
19679;SDS011;9989;48.962;9.182;2023-11-22T05:28:52;6.83;;;3.10;;
19679;SDS011;9989;48.962;9.182;2023-11-22T05:31:19;8.50;;;3.40;;
19679;SDS011;9989;48.962;9.182;2023-11-22T05:33:45;9.10;;;3.83;;
19679;SDS011;9989;48.962;9.182;2023-11-22T05:36:11;8.93;;;3.67;;
19679;SDS011;9989;48.962;9.182;2023-11-22T05:38:37;8.10;;;4.00;;
19679;SDS011;9989;48.962;9.182;2023-11-22T05:41:03;7.43;;;3.37;;
19679;SDS011;9989;48.962;9.182;2023-11-22T05:43:29;12.07;;;3.77;;
19679;SDS011;9989;48.962;9.182;2023-11-22T05:45:55;8.30;;;3.67;;
19679;SDS011;9989;48.962;9.182;2023-11-22T05:48:21;6.93;;;3.03;;
19679;SDS011;9989;48.962;9.182;2023-11-22T05:50:47;7.33;;;3.43;;
19679;SDS011;9989;48.962;9.182;2023-11-22T05:53:13;7.67;;;3.30;;
19679;SDS011;9989;48.962;9.182;2023-11-22T05:55:44;8.03;;;3.60;;
19679;SDS011;9989;48.962;9.182;2023-11-22T05:58:12;7.67;;;3.70;;
19679;SDS011;9989;48.962;9.182;2023-11-22T06:00:41;8.50;;;4.23;;
19679;SDS011;9989;48.962;9.182;2023-11-22T06:03:13;7.73;;;3.60;;
19679;SDS011;9989;48.962;9.182;2023-11-22T06:05:39;8.93;;;3.90;;
19679;SDS011;9989;48.962;9.182;2023-11-22T06:08:05;7.73;;;3.63;;
19679;SDS011;9989;48.962;9.182;2023-11-22T06:10:31;10.67;;;3.67;;
19679;SDS011;9989;48.962;9.182;2023-11-22T06:12:57;9.30;;;3.57;;
19679;SDS011;9989;48.962;9.182;2023-11-22T06:15:23;8.80;;;3.90;;
19679;SDS011;9989;48.962;9.182;2023-11-22T06:17:48;8.00;;;3.67;;
19679;SDS011;9989;48.962;9.182;2023-11-22T06:20:15;7.30;;;3.37;;
19679;SDS011;9989;48.962;9.182;2023-11-22T06:22:40;9.00;;;3.70;;
19679;SDS011;9989;48.962;9.182;2023-11-22T06:25:10;8.10;;;3.33;;
19679;SDS011;9989;48.962;9.182;2023-11-22T06:27:37;8.80;;;3.77;;
19679;SDS011;9989;48.962;9.182;2023-11-22T06:30:03;7.87;;;3.60;;
19679;SDS011;9989;48.962;9.182;2023-11-22T06:32:31;7.50;;;3.30;;
19679;SDS011;9989;48.962;9.182;2023-11-22T06:34:57;7.40;;;3.30;;
19679;SDS011;9989;48.962;9.182;2023-11-22T06:37:23;6.70;;;3.10;;
19679;SDS011;9989;48.962;9.182;2023-11-22T06:39:48;8.67;;;3.20;;
19679;SDS011;9989;48.962;9.182;2023-11-22T06:42:15;7.90;;;3.07;;
19679;SDS011;9989;48.962;9.182;2023-11-22T06:44:41;8.23;;;3.50;;
19679;SDS011;9989;48.962;9.182;2023-11-22T06:47:07;9.17;;;3.20;;
19679;SDS011;9989;48.962;9.182;2023-11-22T06:49:33;6.77;;;2.87;;
19679;SDS011;9989;48.962;9.182;2023-11-22T06:51:59;8.63;;;3.40;;
19679;SDS011;9989;48.962;9.182;2023-11-22T06:54:25;8.10;;;2.93;;
19679;SDS011;9989;48.962;9.182;2023-11-22T06:56:51;7.47;;;3.17;;
19679;SDS011;9989;48.962;9.182;2023-11-22T06:59:17;7.57;;;3.20;;
19679;SDS011;9989;48.962;9.182;2023-11-22T07:01:43;7.73;;;3.93;;
19679;SDS011;9989;48.962;9.182;2023-11-22T07:04:10;8.47;;;3.33;;
19679;SDS011;9989;48.962;9.182;2023-11-22T07:06:36;6.87;;;3.10;;
19679;SDS011;9989;48.962;9.182;2023-11-22T07:09:05;7.20;;;3.10;;
19679;SDS011;9989;48.962;9.182;2023-11-22T07:11:30;7.13;;;3.40;;
19679;SDS011;9989;48.962;9.182;2023-11-22T07:13:56;7.57;;;3.53;;
19679;SDS011;9989;48.962;9.182;2023-11-22T07:16:25;7.23;;;3.13;;
19679;SDS011;9989;48.962;9.182;2023-11-22T07:18:51;10.03;;;3.30;;
19679;SDS011;9989;48.962;9.182;2023-11-22T07:21:16;7.93;;;3.20;;
19679;SDS011;9989;48.962;9.182;2023-11-22T07:23:42;8.37;;;2.90;;
19679;SDS011;9989;48.962;9.182;2023-11-22T07:26:10;7.83;;;3.23;;
19679;SDS011;9989;48.962;9.182;2023-11-22T07:28:35;7.87;;;3.47;;
19679;SDS011;9989;48.962;9.182;2023-11-22T07:31:02;6.70;;;2.97;;
19679;SDS011;9989;48.962;9.182;2023-11-22T07:33:30;8.50;;;3.43;;
19679;SDS011;9989;48.962;9.182;2023-11-22T07:35:56;7.87;;;3.47;;
19679;SDS011;9989;48.962;9.182;2023-11-22T07:38:23;8.07;;;3.50;;
19679;SDS011;9989;48.962;9.182;2023-11-22T07:40:49;8.63;;;3.87;;
19679;SDS011;9989;48.962;9.182;2023-11-22T07:43:16;7.90;;;3.33;;
19679;SDS011;9989;48.962;9.182;2023-11-22T07:45:42;14.20;;;5.47;;
19679;SDS011;9989;48.962;9.182;2023-11-22T07:48:08;7.93;;;3.37;;
19679;SDS011;9989;48.962;9.182;2023-11-22T07:50:37;8.80;;;3.20;;
19679;SDS011;9989;48.962;9.182;2023-11-22T07:53:04;7.97;;;3.60;;
19679;SDS011;9989;48.962;9.182;2023-11-22T07:55:30;7.43;;;3.40;;
19679;SDS011;9989;48.962;9.182;2023-11-22T07:57:56;9.93;;;4.00;;
19679;SDS011;9989;48.962;9.182;2023-11-22T08:00:22;9.53;;;3.83;;
19679;SDS011;9989;48.962;9.182;2023-11-22T08:02:48;8.37;;;3.60;;
19679;SDS011;9989;48.962;9.182;2023-11-22T08:05:14;10.47;;;4.50;;
19679;SDS011;9989;48.962;9.182;2023-11-22T08:07:41;10.10;;;4.03;;
19679;SDS011;9989;48.962;9.182;2023-11-22T08:10:09;9.43;;;4.43;;
19679;SDS011;9989;48.962;9.182;2023-11-22T08:12:42;8.97;;;3.83;;
19679;SDS011;9989;48.962;9.182;2023-11-22T08:15:10;8.37;;;3.90;;
19679;SDS011;9989;48.962;9.182;2023-11-22T08:17:37;10.37;;;4.60;;
19679;SDS011;9989;48.962;9.182;2023-11-22T08:20:04;9.37;;;4.03;;
19679;SDS011;9989;48.962;9.182;2023-11-22T08:22:31;9.03;;;4.50;;
19679;SDS011;9989;48.962;9.182;2023-11-22T08:25:01;10.10;;;4.40;;
19679;SDS011;9989;48.962;9.182;2023-11-22T08:27:30;10.63;;;4.27;;
19679;SDS011;9989;48.962;9.182;2023-11-22T08:29:56;9.73;;;4.50;;
19679;SDS011;9989;48.962;9.182;2023-11-22T08:32:23;9.00;;;4.30;;
19679;SDS011;9989;48.962;9.182;2023-11-22T08:34:52;11.67;;;5.87;;
19679;SDS011;9989;48.962;9.182;2023-11-22T08:37:18;11.60;;;5.77;;
19679;SDS011;9989;48.962;9.182;2023-11-22T08:39:44;9.70;;;5.07;;
19679;SDS011;9989;48.962;9.182;2023-11-22T08:42:09;10.93;;;5.17;;
19679;SDS011;9989;48.962;9.182;2023-11-22T08:44:35;13.60;;;5.80;;
19679;SDS011;9989;48.962;9.182;2023-11-22T08:47:02;11.70;;;4.73;;
19679;SDS011;9989;48.962;9.182;2023-11-22T08:49:30;10.47;;;4.57;;
19679;SDS011;9989;48.962;9.182;2023-11-22T08:51:56;9.53;;;3.97;;
19679;SDS011;9989;48.962;9.182;2023-11-22T08:54:24;9.07;;;4.20;;
19679;SDS011;9989;48.962;9.182;2023-11-22T08:56:53;11.80;;;5.57;;
19679;SDS011;9989;48.962;9.182;2023-11-22T08:59:21;10.17;;;4.90;;
19679;SDS011;9989;48.962;9.182;2023-11-22T09:01:47;11.33;;;5.03;;
19679;SDS011;9989;48.962;9.182;2023-11-22T09:04:12;13.33;;;4.93;;
19679;SDS011;9989;48.962;9.182;2023-11-22T09:06:38;9.77;;;4.43;;
19679;SDS011;9989;48.962;9.182;2023-11-22T09:09:04;10.00;;;4.60;;
19679;SDS011;9989;48.962;9.182;2023-11-22T09:11:30;10.33;;;5.13;;
19679;SDS011;9989;48.962;9.182;2023-11-22T09:13:59;12.40;;;5.37;;
19679;SDS011;9989;48.962;9.182;2023-11-22T09:16:27;12.27;;;6.13;;
19679;SDS011;9989;48.962;9.182;2023-11-22T09:18:53;12.23;;;5.17;;
19679;SDS011;9989;48.962;9.182;2023-11-22T09:21:21;9.17;;;4.50;;
19679;SDS011;9989;48.962;9.182;2023-11-22T09:23:46;10.13;;;4.50;;
19679;SDS011;9989;48.962;9.182;2023-11-22T09:26:13;11.00;;;4.73;;
19679;SDS011;9989;48.962;9.182;2023-11-22T09:28:39;9.73;;;4.43;;
19679;SDS011;9989;48.962;9.182;2023-11-22T09:31:08;9.93;;;4.07;;
19679;SDS011;9989;48.962;9.182;2023-11-22T09:33:34;10.30;;;4.80;;
19679;SDS011;9989;48.962;9.182;2023-11-22T09:35:59;11.07;;;5.60;;
19679;SDS011;9989;48.962;9.182;2023-11-22T09:38:25;11.80;;;5.50;;
19679;SDS011;9989;48.962;9.182;2023-11-22T09:40:50;10.70;;;5.07;;
19679;SDS011;9989;48.962;9.182;2023-11-22T09:43:17;11.83;;;4.90;;
19679;SDS011;9989;48.962;9.182;2023-11-22T09:45:45;10.77;;;5.17;;
19679;SDS011;9989;48.962;9.182;2023-11-22T09:48:18;10.97;;;5.23;;
19679;SDS011;9989;48.962;9.182;2023-11-22T09:53:22;11.23;;;5.00;;
19679;SDS011;9989;48.962;9.182;2023-11-22T09:55:57;11.07;;;4.97;;
19679;SDS011;9989;48.962;9.182;2023-11-22T09:58:23;10.20;;;5.10;;
19679;SDS011;9989;48.962;9.182;2023-11-22T10:00:50;10.33;;;4.80;;
19679;SDS011;9989;48.962;9.182;2023-11-22T10:03:17;10.53;;;5.00;;
19679;SDS011;9989;48.962;9.182;2023-11-22T10:05:45;11.57;;;5.70;;
19679;SDS011;9989;48.962;9.182;2023-11-22T10:08:10;10.37;;;5.33;;
19679;SDS011;9989;48.962;9.182;2023-11-22T10:10:37;11.53;;;5.93;;
19679;SDS011;9989;48.962;9.182;2023-11-22T10:13:03;10.23;;;5.07;;
19679;SDS011;9989;48.962;9.182;2023-11-22T10:15:29;9.87;;;5.10;;
19679;SDS011;9989;48.962;9.182;2023-11-22T10:17:58;10.63;;;5.63;;
19679;SDS011;9989;48.962;9.182;2023-11-22T10:20:47;8.97;;;4.27;;
19679;SDS011;9989;48.962;9.182;2023-11-22T10:23:12;11.23;;;5.13;;
19679;SDS011;9989;48.962;9.182;2023-11-22T10:25:43;11.03;;;4.70;;
19679;SDS011;9989;48.962;9.182;2023-11-22T10:28:09;12.27;;;6.23;;
19679;SDS011;9989;48.962;9.182;2023-11-22T10:30:35;11.30;;;5.40;;
19679;SDS011;9989;48.962;9.182;2023-11-22T10:33:02;10.77;;;5.10;;
19679;SDS011;9989;48.962;9.182;2023-11-22T10:35:28;9.30;;;4.77;;
19679;SDS011;9989;48.962;9.182;2023-11-22T10:37:54;10.67;;;5.17;;
19679;SDS011;9989;48.962;9.182;2023-11-22T10:40:20;9.77;;;4.60;;
19679;SDS011;9989;48.962;9.182;2023-11-22T10:42:46;10.50;;;5.70;;
19679;SDS011;9989;48.962;9.182;2023-11-22T10:45:16;10.60;;;4.83;;
19679;SDS011;9989;48.962;9.182;2023-11-22T10:47:43;10.57;;;5.40;;
19679;SDS011;9989;48.962;9.182;2023-11-22T10:50:09;10.27;;;5.07;;
19679;SDS011;9989;48.962;9.182;2023-11-22T10:52:37;8.93;;;4.30;;
19679;SDS011;9989;48.962;9.182;2023-11-22T10:55:07;10.23;;;4.70;;
19679;SDS011;9989;48.962;9.182;2023-11-22T10:57:40;10.30;;;4.93;;
19679;SDS011;9989;48.962;9.182;2023-11-22T11:00:10;9.63;;;4.53;;
19679;SDS011;9989;48.962;9.182;2023-11-22T11:02:40;10.50;;;5.23;;
19679;SDS011;9989;48.962;9.182;2023-11-22T11:05:31;11.70;;;4.90;;
19679;SDS011;9989;48.962;9.182;2023-11-22T11:10:40;9.33;;;4.33;;
19679;SDS011;9989;48.962;9.182;2023-11-22T11:13:07;11.27;;;4.67;;
19679;SDS011;9989;48.962;9.182;2023-11-22T11:15:37;10.70;;;5.37;;
19679;SDS011;9989;48.962;9.182;2023-11-22T11:18:05;10.10;;;5.00;;
19679;SDS011;9989;48.962;9.182;2023-11-22T11:20:33;10.13;;;4.77;;
19679;SDS011;9989;48.962;9.182;2023-11-22T11:23:13;10.27;;;5.23;;
19679;SDS011;9989;48.962;9.182;2023-11-22T11:25:39;10.57;;;5.40;;
19679;SDS011;9989;48.962;9.182;2023-11-22T11:28:09;10.57;;;5.60;;
19679;SDS011;9989;48.962;9.182;2023-11-22T11:30:46;12.77;;;6.40;;
19679;SDS011;9989;48.962;9.182;2023-11-22T11:33:19;12.07;;;5.30;;
19679;SDS011;9989;48.962;9.182;2023-11-22T11:35:51;12.10;;;5.97;;
19679;SDS011;9989;48.962;9.182;2023-11-22T11:38:20;11.00;;;5.83;;
19679;SDS011;9989;48.962;9.182;2023-11-22T11:40:47;10.50;;;5.17;;
19679;SDS011;9989;48.962;9.182;2023-11-22T11:43:14;9.77;;;5.20;;
19679;SDS011;9989;48.962;9.182;2023-11-22T11:45:40;13.63;;;6.60;;
19679;SDS011;9989;48.962;9.182;2023-11-22T11:48:15;10.67;;;5.23;;
19679;SDS011;9989;48.962;9.182;2023-11-22T11:50:41;10.53;;;5.10;;
19679;SDS011;9989;48.962;9.182;2023-11-22T11:53:11;11.53;;;5.57;;
19679;SDS011;9989;48.962;9.182;2023-11-22T11:55:37;12.77;;;6.20;;
19679;SDS011;9989;48.962;9.182;2023-11-22T11:58:06;11.80;;;5.90;;
19679;SDS011;9989;48.962;9.182;2023-11-22T12:00:38;11.53;;;5.90;;
19679;SDS011;9989;48.962;9.182;2023-11-22T12:03:07;10.90;;;5.57;;
19679;SDS011;9989;48.962;9.182;2023-11-22T12:05:36;10.37;;;6.07;;
19679;SDS011;9989;48.962;9.182;2023-11-22T12:08:03;12.40;;;6.77;;
19679;SDS011;9989;48.962;9.182;2023-11-22T12:10:29;10.73;;;5.50;;
19679;SDS011;9989;48.962;9.182;2023-11-22T12:12:55;10.47;;;6.03;;
19679;SDS011;9989;48.962;9.182;2023-11-22T12:15:21;11.13;;;5.13;;
19679;SDS011;9989;48.962;9.182;2023-11-22T12:17:50;10.50;;;5.07;;
19679;SDS011;9989;48.962;9.182;2023-11-22T12:20:17;12.90;;;5.97;;
19679;SDS011;9989;48.962;9.182;2023-11-22T12:22:46;11.50;;;5.77;;
19679;SDS011;9989;48.962;9.182;2023-11-22T12:25:12;11.33;;;5.77;;
19679;SDS011;9989;48.962;9.182;2023-11-22T12:27:39;12.70;;;5.87;;
19679;SDS011;9989;48.962;9.182;2023-11-22T12:30:06;13.10;;;5.63;;
19679;SDS011;9989;48.962;9.182;2023-11-22T12:32:33;12.13;;;5.93;;
19679;SDS011;9989;48.962;9.182;2023-11-22T12:34:59;11.07;;;5.87;;
19679;SDS011;9989;48.962;9.182;2023-11-22T12:37:26;11.90;;;5.57;;
19679;SDS011;9989;48.962;9.182;2023-11-22T12:39:52;11.30;;;5.33;;
19679;SDS011;9989;48.962;9.182;2023-11-22T12:42:19;10.90;;;5.50;;
19679;SDS011;9989;48.962;9.182;2023-11-22T12:44:49;11.53;;;5.57;;
19679;SDS011;9989;48.962;9.182;2023-11-22T12:47:38;13.40;;;7.33;;
19679;SDS011;9989;48.962;9.182;2023-11-22T12:50:05;17.60;;;9.50;;
19679;SDS011;9989;48.962;9.182;2023-11-22T12:52:32;13.10;;;6.77;;
19679;SDS011;9989;48.962;9.182;2023-11-22T12:54:58;12.60;;;6.47;;
19679;SDS011;9989;48.962;9.182;2023-11-22T12:57:27;11.53;;;5.73;;
19679;SDS011;9989;48.962;9.182;2023-11-22T12:59:53;11.83;;;5.70;;
19679;SDS011;9989;48.962;9.182;2023-11-22T13:02:18;13.33;;;6.23;;
19679;SDS011;9989;48.962;9.182;2023-11-22T13:04:44;17.13;;;7.80;;
19679;SDS011;9989;48.962;9.182;2023-11-22T13:07:11;14.03;;;6.53;;
19679;SDS011;9989;48.962;9.182;2023-11-22T13:09:36;10.83;;;5.83;;
19679;SDS011;9989;48.962;9.182;2023-11-22T13:12:03;13.33;;;8.23;;
19679;SDS011;9989;48.962;9.182;2023-11-22T13:14:29;14.50;;;9.33;;
19679;SDS011;9989;48.962;9.182;2023-11-22T13:17:00;13.20;;;7.67;;
19679;SDS011;9989;48.962;9.182;2023-11-22T13:19:26;12.73;;;6.47;;
19679;SDS011;9989;48.962;9.182;2023-11-22T13:21:52;18.90;;;11.17;;
19679;SDS011;9989;48.962;9.182;2023-11-22T13:24:18;14.60;;;8.53;;
19679;SDS011;9989;48.962;9.182;2023-11-22T13:26:45;12.73;;;6.70;;
19679;SDS011;9989;48.962;9.182;2023-11-22T13:29:11;13.87;;;8.47;;
19679;SDS011;9989;48.962;9.182;2023-11-22T13:31:36;12.50;;;6.87;;
19679;SDS011;9989;48.962;9.182;2023-11-22T13:34:02;12.20;;;6.63;;
19679;SDS011;9989;48.962;9.182;2023-11-22T13:36:28;11.87;;;6.90;;
19679;SDS011;9989;48.962;9.182;2023-11-22T13:38:53;14.07;;;7.00;;
19679;SDS011;9989;48.962;9.182;2023-11-22T13:41:20;12.37;;;6.87;;
19679;SDS011;9989;48.962;9.182;2023-11-22T13:43:47;13.10;;;6.43;;
19679;SDS011;9989;48.962;9.182;2023-11-22T13:46:13;12.90;;;6.90;;
19679;SDS011;9989;48.962;9.182;2023-11-22T13:48:40;14.90;;;7.27;;
19679;SDS011;9989;48.962;9.182;2023-11-22T13:51:06;12.93;;;6.63;;
19679;SDS011;9989;48.962;9.182;2023-11-22T13:53:33;14.73;;;7.20;;
19679;SDS011;9989;48.962;9.182;2023-11-22T13:56:01;11.10;;;5.80;;
19679;SDS011;9989;48.962;9.182;2023-11-22T13:58:33;13.57;;;6.67;;
19679;SDS011;9989;48.962;9.182;2023-11-22T14:00:59;10.13;;;5.50;;
19679;SDS011;9989;48.962;9.182;2023-11-22T14:03:25;11.93;;;6.70;;
19679;SDS011;9989;48.962;9.182;2023-11-22T14:05:51;10.40;;;5.77;;
19679;SDS011;9989;48.962;9.182;2023-11-22T14:08:17;10.50;;;5.97;;
19679;SDS011;9989;48.962;9.182;2023-11-22T14:10:43;12.63;;;5.83;;
19679;SDS011;9989;48.962;9.182;2023-11-22T14:13:10;13.80;;;8.83;;
19679;SDS011;9989;48.962;9.182;2023-11-22T14:15:37;13.07;;;7.23;;
19679;SDS011;9989;48.962;9.182;2023-11-22T14:18:03;10.73;;;5.50;;
19679;SDS011;9989;48.962;9.182;2023-11-22T14:20:29;10.60;;;5.37;;
19679;SDS011;9989;48.962;9.182;2023-11-22T14:22:55;10.57;;;5.10;;
19679;SDS011;9989;48.962;9.182;2023-11-22T14:25:21;11.57;;;6.17;;
19679;SDS011;9989;48.962;9.182;2023-11-22T14:27:47;11.70;;;6.30;;
19679;SDS011;9989;48.962;9.182;2023-11-22T14:30:19;13.27;;;6.17;;
19679;SDS011;9989;48.962;9.182;2023-11-22T14:32:46;12.10;;;5.90;;
19679;SDS011;9989;48.962;9.182;2023-11-22T14:35:12;12.40;;;6.10;;
19679;SDS011;9989;48.962;9.182;2023-11-22T14:37:38;12.53;;;7.30;;
19679;SDS011;9989;48.962;9.182;2023-11-22T14:40:06;12.97;;;7.17;;
19679;SDS011;9989;48.962;9.182;2023-11-22T14:42:41;13.47;;;7.13;;
19679;SDS011;9989;48.962;9.182;2023-11-22T14:45:08;13.63;;;8.00;;
19679;SDS011;9989;48.962;9.182;2023-11-22T14:47:36;13.43;;;6.77;;
19679;SDS011;9989;48.962;9.182;2023-11-22T14:50:02;14.23;;;8.03;;
19679;SDS011;9989;48.962;9.182;2023-11-22T14:52:31;12.00;;;6.57;;
19679;SDS011;9989;48.962;9.182;2023-11-22T14:54:57;12.07;;;6.67;;
19679;SDS011;9989;48.962;9.182;2023-11-22T14:57:25;14.00;;;7.17;;
19679;SDS011;9989;48.962;9.182;2023-11-22T14:59:51;13.63;;;7.33;;